• Join FlightAware (Why Join?)
  • Login
  • US Flag 
Gobble Gobble! 
09:27AM EST


 

Airport Tracker/Info


-or-


 

Live Flight TrackerFlight Track Log ✈ UPS1143 ✈ 22-Aug-2013 ✈ KBUF - KSDF

Flight Track Log - Related Links

Times and Time Zones

All times are in EDT time to prevent confusion due to time zone crossing. See the UPS1143 flight status page for this flight to view local times or setup timezone preferences in your user account.

Time Position Orientation Groundspeed Altitude Reporting Facility
EDT Latitude Longitude Course Direction KTS MPH feet Rate Location/Type
11:23PM 42.9500 -78.7170 46° Northeast 149 171 1,700  Level FlightAware
11:23PM 42.9540 -78.7110 48° Northeast 146 168 2,200 3,000 Climbing FlightAware
11:23PM 42.9590 -78.7030 50° Northeast 147 169 2,700 2,640 Climbing FlightAware
11:23PM 42.9600 -78.6970 77° East 152 175 3,000 2,460 Climbing FlightAware
11:23PM 42.9610 -78.6920 75° East 161 185 3,200 2,100 Climbing FlightAware
11:24PM 42.9520 -78.6680 117° Southeast 187 215 4,000 1,980 Climbing FlightAware
11:24PM 42.9440 -78.6610 147° Southeast 190 219 4,400 2,280 Climbing FlightAware
11:24PM 42.9370 -78.6590 168° South 189 217 4,800 2,580 Climbing FlightAware
11:24PM 42.9300 -78.6580 174° South 191 220 5,100 2,700 Climbing FlightAware
11:24PM 42.9260 -78.6580 180° South 191 220 5,300 1,980 Climbing FlightAware
11:24PM 42.9200 -78.6600 194° South 198 228 5,500 1,080 Climbing FlightAware
11:25PM 42.9130 -78.6650 208° Southwest 209 241 5,600 900 Climbing FlightAware
11:25PM 42.9030 -78.6750 216° Southwest 226 260 5,800 1,500 Climbing FlightAware
11:25PM 42.8910 -78.6920 226° Southwest 249 287 6,300 1,980 Climbing FlightAware
11:25PM 42.8750 -78.7170 229° Southwest 272 313 7,000 3,120 Climbing FlightAware
11:26PM 42.8560 -78.7480 230° Southwest 276 318 8,500 3,840 Climbing FlightAware
11:26PM 42.8390 -78.7740 228° Southwest 276 318 9,700 2,760 Climbing FlightAware
11:27PM 42.8090 -78.8230 230° Southwest 302 348 11,100 1,920 Climbing FlightAware
11:27PM 42.7850 -78.8840 242° Southwest 342 394 12,000 1,800 Climbing FlightAware
11:28PM 42.7560 -78.9580 242° Southwest 375 432 13,200 2,460 Climbing FlightAware
11:28PM 42.7260 -79.0310 241° Southwest 383 441 15,000 3,000 Climbing FlightAware
11:29PM 42.6980 -79.0990 241° Southwest 386 444 16,600 2,880 Climbing FlightAware
11:29PM 42.6670 -79.1680 239° Southwest 393 452 18,100 2,460 Climbing FlightAware
11:30PM 42.6300 -79.2550 240° Southwest 406 467 19,600 2,100 Climbing FlightAware
11:31PM 42.6010 -79.3270 241° Southwest 415 478 20,700 2,100 Climbing FlightAware
11:31PM 42.5650 -79.4120 240° Southwest 420 483 22,100 2,220 Climbing FlightAware
11:32PM 42.5300 -79.4940 240° Southwest 425 489 23,400 2,100 Climbing FlightAware
11:32PM 42.5000 -79.5660 241° Southwest 428 493 24,500 2,100 Climbing FlightAware
11:33PM 42.4630 -79.6530 240° Southwest 432 497 25,800 1,800 Climbing FlightAware
11:34PM 42.4190 -79.7270 231° Southwest 439 505 26,700 1,380 Climbing FlightAware
11:34PM 42.3710 -79.8030 229° Southwest 445 512 27,500 1,620 Climbing FlightAware
11:35PM 42.3310 -79.8670 230° Southwest 443 510 28,500 1,740 Climbing FlightAware
11:36PM 42.2820 -79.9450 230° Southwest 439 505 29,700 1,620 Climbing FlightAware
11:36PM 42.2260 -80.0340 230° Southwest 438 504 30,900 1,800 Climbing FlightAware
11:37PM 42.1810 -80.1040 229° Southwest 433 498 32,000 900 Climbing FlightAware
11:37PM 42.1300 -80.1850 230° Southwest 436 502 32,000  Level FlightAware
11:38PM 42.0880 -80.2480 228° Southwest 434 499 32,000  Level FlightAware
11:38PM 42.0460 -80.3140 229° Southwest 436 502 32,000  Level FlightAware
11:39PM 41.9940 -80.3960 230° Southwest 436 502 32,000  Level FlightAware
11:40PM 41.9480 -80.4680 229° Southwest 436 502 32,000  Level FlightAware
11:40PM 41.8990 -80.5440 229° Southwest 437 503 32,000  Level FlightAware
11:41PM 41.8610 -80.6030 229° Southwest 438 504 32,000  Level FlightAware
11:41PM 41.8070 -80.6850 229° Southwest 440 506 32,000  Level FlightAware
11:42PM 41.7560 -80.7630 229° Southwest 440 506 32,000  Level FlightAware
11:43PM 41.6990 -80.8500 229° Southwest 441 507 32,000  Level FlightAware
11:43PM 41.6640 -80.9050 230° Southwest 441 507 32,000  Level FlightAware
11:44PM 41.6030 -80.9980 229° Southwest 442 509 32,000  Level FlightAware
11:44PM 41.5630 -81.0590 229° Southwest 442 509 32,000  Level FlightAware
11:45PM 41.5100 -81.1390 229° Southwest 444 511 32,000  Level FlightAware
11:46PM 41.4630 -81.2110 229° Southwest 445 512 32,000  Level FlightAware
11:46PM 41.4160 -81.2810 228° Southwest 446 513 32,000  Level FlightAware
11:47PM 41.3750 -81.3430 229° Southwest 445 512 32,000  Level FlightAware
11:47PM 41.3150 -81.4330 228° Southwest 443 510 32,000  Level FlightAware
11:48PM 41.2700 -81.5000 228° Southwest 442 509 32,000  Level FlightAware
11:49PM 41.2220 -81.5730 229° Southwest 440 506 32,000  Level FlightAware
11:49PM 41.1750 -81.6490 231° Southwest 433 498 32,000  Level FlightAware
11:50PM 41.1510 -81.7370 250° West 430 495 32,000  Level FlightAware
11:50PM 41.1300 -81.8170 251° West 430 495 32,000  Level FlightAware
11:51PM 41.1070 -81.9070 251° West 431 496 32,000  Level FlightAware
11:51PM 41.0770 -81.9880 244° Southwest 439 505 32,000  Level FlightAware
11:52PM 41.0240 -82.0640 227° Southwest 444 511 32,000  Level FlightAware
11:53PM 40.9660 -82.1450 227° Southwest 445 512 32,000  Level FlightAware
11:53PM 40.9150 -82.2130 225° Southwest 444 511 32,000  Level FlightAware
11:54PM 40.8700 -82.2760 227° Southwest 445 512 32,000  Level FlightAware
11:55PM 40.8190 -82.3440 225° Southwest 444 511 32,000  Level FlightAware
11:55PM 40.7650 -82.4180 226° Southwest 444 511 32,000  Level FlightAware
11:56PM 40.7120 -82.4900 226° Southwest 443 510 32,000  Level FlightAware
11:56PM 40.6660 -82.5520 226° Southwest 443 510 32,000  Level FlightAware
11:57PM 40.6140 -82.6210 225° Southwest 441 507 32,000  Level FlightAware
11:57PM 40.5690 -82.6830 226° Southwest 442 509 32,000  Level FlightAware
11:58PM 40.5170 -82.7520 225° Southwest 442 509 32,000  Level FlightAware
11:59PM 40.4630 -82.8250 226° Southwest 443 510 32,000  Level FlightAware
11:59PM 40.4110 -82.8940 225° Southwest 443 510 32,000  Level FlightAware
12:00AM 40.3680 -82.9520 226° Southwest 444 511 32,000  Level FlightAware
12:00AM 40.3140 -83.0250 226° Southwest 445 512 32,000  Level FlightAware
12:01AM 40.2620 -83.0920 225° Southwest 446 513 32,000  Level FlightAware
12:02AM 40.2120 -83.1600 226° Southwest 445 512 32,000  Level FlightAware
12:02AM 40.1590 -83.2280 224° Southwest 445 512 32,000  Level FlightAware
12:03AM 40.1030 -83.3030 226° Southwest 445 512 32,000  Level FlightAware
12:03AM 40.0480 -83.3760 225° Southwest 446 513 32,000  Level FlightAware
12:04AM 39.9990 -83.4410 225° Southwest 446 513 32,000  Level FlightAware
12:04AM 39.9560 -83.4960 224° Southwest 446 513 32,000 -720 Level FlightAware
12:05AM 39.8950 -83.5760 225° Southwest 446 513 31,200 -1,440 Descending FlightAware
12:06AM 39.8480 -83.6380 225° Southwest 447 514 30,300 -1,080 Descending FlightAware
12:06AM 39.7950 -83.7060 225° Southwest 449 517 30,000 -300 Descending FlightAware
12:07AM 39.7450 -83.7720 225° Southwest 452 520 30,000  Level FlightAware
12:07AM 39.6930 -83.8390 225° Southwest 452 520 30,000  Level FlightAware
12:08AM 39.6400 -83.9080 225° Southwest 451 519 30,000  Level FlightAware
12:09AM 39.5880 -83.9750 225° Southwest 451 519 30,000  Level FlightAware
12:09AM 39.5310 -84.0470 224° Southwest 452 520 30,000  Level FlightAware
12:10AM 39.4620 -84.1360 225° Southwest 451 519 30,000  Level FlightAware
12:11AM 39.4160 -84.1930 224° Southwest 451 519 30,000  Level FlightAware
12:11AM 39.3580 -84.2660 224° Southwest 451 519 30,000 -120 Level FlightAware
12:12AM 39.2790 -84.3700 226° Southwest 364 419 29,900 -1,080 Descending FlightAware
12:13AM 39.2230 -84.4420 225° Southwest 451 519 28,700 -2,580 Descending FlightAware
12:13AM 39.1820 -84.4930 224° Southwest 449 517 27,200 -3,420 Descending FlightAware
12:14AM 39.1170 -84.5740 224° Southwest 456 525 24,600 -3,480 Descending FlightAware
12:14AM 39.0720 -84.6320 225° Southwest 452 520 23,000 -3,000 Descending FlightAware
12:15AM 39.0190 -84.6980 224° Southwest 440 506 21,300 -3,360 Descending FlightAware
12:16AM 38.9560 -84.7600 217° Southwest 423 487 18,900 -3,540 Descending FlightAware
12:16AM 38.9140 -84.8010 217° Southwest 418 481 17,300 -1,920 Descending FlightAware
12:17AM 38.8560 -84.8580 217° Southwest 417 480 16,500 -2,880 Descending FlightAware
12:17AM 38.7980 -84.9150 217° Southwest 401 461 13,600 -3,660 Descending FlightAware
12:18AM 38.7420 -84.9690 217° Southwest 401 461 12,400 -1,500 Descending FlightAware
12:19AM 38.6920 -85.0180 217° Southwest 401 461 11,900 -360 Descending FlightAware
12:20AM 38.6230 -85.0840 217° Southwest 401 461 11,900  Level FlightAware
12:20AM 38.5760 -85.1290 217° Southwest 401 461 11,900 -960 Level FlightAware
12:21AM 38.5150 -85.1870 217° Southwest 457 526 10,900 -1,440 Descending FlightAware
12:21AM 38.4640 -85.2370 218° Southwest 353 406 10,400 -840 Descending FlightAware
12:22AM 38.4240 -85.2740 216° Southwest 329 379 10,000 -780 Descending FlightAware
12:22AM 38.4150 -85.2830 218° Southwest 322 371 9,900 -540 Descending FlightAware
12:22AM 38.3880 -85.3080 216° Southwest 307 353 9,700 -960 Descending FlightAware
12:23AM 38.3630 -85.3310 216° Southwest 297 342 9,200 -1,380 Descending FlightAware
12:23AM 38.3420 -85.3510 217° Southwest 295 339 8,800 -1,380 Descending FlightAware
12:23AM 38.3240 -85.3690 218° Southwest 294 338 8,400 -1,380 Descending FlightAware
12:24AM 38.3030 -85.3880 215° Southwest 289 333 8,000 -720 Descending FlightAware
12:24AM 38.2760 -85.4140 217° Southwest 267 307 7,900 -180 Descending FlightAware
12:24AM 38.2600 -85.4290 216° Southwest 260 299 7,900 -480 Level FlightAware
12:25AM 38.2400 -85.4490 218° Southwest 256 295 7,600 -960 Descending FlightAware
12:25AM 38.2350 -85.4590 238° Southwest 253 291 7,500 -840 Descending FlightAware
12:25AM 38.2330 -85.4700 257° West 247 284 7,400 -900 Descending FlightAware
12:25AM 38.2300 -85.4860 257° West 246 283 7,200 -780 Descending FlightAware
12:26AM 38.2210 -85.5270 254° West 242 278 6,900 -600 Descending FlightAware
12:26AM 38.2160 -85.5530 256° West 234 269 6,700 -840 Descending FlightAware
12:26AM 38.2090 -85.5850 254° West 226 260 6,300 -960 Descending FlightAware
12:27AM 38.1990 -85.6100 243° Southwest 223 257 6,000 -720 Descending FlightAware
12:27AM 38.1950 -85.6130 211° Southwest 222 255 6,000  Level FlightAware
12:27AM 38.1900 -85.6160 205° Southwest 220 253 6,000 -420 Level FlightAware
12:27AM 38.1810 -85.6180 190° South 219 252 5,900 -240 Descending FlightAware
12:27AM 38.1600 -85.6120 167° South 219 252 5,900  Level FlightAware
12:28AM 38.1460 -85.6070 164° South 218 251 5,900 -540 Level FlightAware
12:28AM 38.1280 -85.6010 165° South 217 250 5,600 -1,080 Descending FlightAware
12:28AM 38.1070 -85.5940 165° South 215 247 5,200 -1,200 Descending FlightAware
12:29AM 38.0840 -85.5860 165° South 214 246 4,700 -1,200 Descending FlightAware
12:29AM 38.0630 -85.5800 167° South 213 245 4,300 -1,080 Descending FlightAware
12:29AM 38.0450 -85.5740 165° South 210 242 4,000 -600 Descending FlightAware
12:30AM 38.0260 -85.5680 166° South 205 236 3,900 -180 Descending FlightAware
12:30AM 38.0100 -85.5630 166° South 204 235 3,900 -180 Level FlightAware
12:30AM 37.9940 -85.5580 166° South 207 238 3,800 -720 Descending FlightAware
12:31AM 37.9770 -85.5530 167° South 210 242 3,500 -1,080 Descending FlightAware
12:31AM 37.9560 -85.5470 167° South 209 241 3,100 -1,020 Descending FlightAware
12:31AM 37.9470 -85.5480 185° South 200 230 3,000 -420 Descending FlightAware
12:31AM 37.9420 -85.5510 205° Southwest 197 227 3,000 -600 Level FlightAware
12:31AM 37.9390 -85.5540 218° Southwest 195 224 2,900 -420 Descending FlightAware
12:31AM 37.9350 -85.5640 243° Southwest 194 223 2,900  Level FlightAware
12:31AM 37.9340 -85.5690 256° West 193 222 2,900  Level FlightAware
12:32AM 37.9410 -85.5980 287° West 198 228 2,900  Level FlightAware
12:32AM 37.9430 -85.6010 310° West 199 229 2,900  Level FlightAware
12:32AM 37.9540 -85.6130 319° Northwest 200 230 2,900  Level FlightAware
12:33AM 37.9680 -85.6280 320° Northwest 200 230 2,900  Level FlightAware
12:33AM 37.9820 -85.6440 318° Northwest 200 230 2,900  Level FlightAware
12:33AM 37.9960 -85.6600 318° Northwest 200 230 2,900  Level FlightAware
12:33AM 38.0070 -85.6690 327° Northwest 203 234 2,900  Level FlightAware
12:34AM 38.0200 -85.6730 346° North 206 237 2,900  Level FlightAware
12:34AM 38.0290 -85.6760 345° North 206 237 2,900 -360 Level FlightAware
12:34AM 38.0390 -85.6800 343° North 206 237 2,800 -1,020 Descending FlightAware
12:34AM 38.0580 -85.6880 342° North 205 236 2,400 -1,080 Descending FlightAware
12:35AM 38.0780 -85.6950 345° North 198 228 2,000 -1,080 Descending FlightAware
12:35AM 38.0890 -85.6980 348° North 188 216 1,800 -840 Descending FlightAware
12:35AM 38.1030 -85.7020 347° North 169 194 1,600 -720 Descending FlightAware
12:36AM 38.1140 -85.7060 344° North 150 173 1,400 -780 Descending FlightAware
12:36AM 38.1310 -85.7120 344° North 137 158 1,100 -900 Descending FlightAware
12:36AM 38.1430 -85.7160 345° North 137 158 800 -720 Descending FlightAware
12:37AM 38.1590 -85.7220 344° North 135 155 600 -720 Descending FlightAware
12:37AM 38.1650 -85.7230 353° North 135 155 400 -360 Descending FlightAware
12:37AM 38.1780 -85.7280 343° North 135 155 400  Level FlightAware